Orbital elements of COSMOS 2251 DEB
| Launched | 15 June 1993 |
| Flight ended | – |
| Launch site | Plesetsk Missile and Space Complex, Russia |
| Owner | Commonwealth of Independent States (former USSR) |
| NORAD ID | 36551 |
| Date fetched |
Epoch osculation |
Inc. [°] |
Ecc. | RA asc node [hr] |
Arg Peri. [°] |
Mean anom [°] |
Mean motion [rev/day] |
Abs. mag |
| Date fetched |
Epoch osculation |
Inc. [°] |
Ecc. | RA asc node [hr] |
Arg Peri. [°] |
Mean anom [°] |
Mean motion [rev/day] |
Abs. mag |
| 2026 May 03 17:57 | 2026 Apr 27 05:18:44 | 73.8817 | 0.00383 | 6.2814 | 7.0527 | 353.1195 | 15.09589 | – |
| 2026 May 02 17:57 | 2026 Apr 27 05:18:44 | 73.8817 | 0.00383 | 6.2814 | 7.0527 | 353.1195 | 15.09589 | – |
| 2026 May 01 17:56 | 2026 Apr 27 05:18:44 | 73.8817 | 0.00383 | 6.2814 | 7.0527 | 353.1195 | 15.09589 | – |
| 2026 Apr 30 17:56 | 2026 Apr 27 05:18:44 | 73.8817 | 0.00383 | 6.2814 | 7.0527 | 353.1195 | 15.09589 | – |
| 2026 Apr 29 17:57 | 2026 Apr 24 05:44:06 | 73.8824 | 0.00385 | 6.6954 | 13.7228 | 353.1195 | 15.09589 | – |
| 2026 Apr 28 17:56 | 2026 Apr 24 05:44:06 | 73.8824 | 0.00385 | 6.6954 | 13.7228 | 353.1195 | 15.09589 | – |
| 2026 Apr 27 17:58 | 2026 Apr 24 05:44:06 | 73.8824 | 0.00385 | 6.6954 | 13.7228 | 353.1195 | 15.09589 | – |
| 2026 Apr 26 17:58 | 2026 Apr 24 05:44:06 | 73.8824 | 0.00385 | 6.6954 | 13.7228 | 353.1195 | 15.09589 | – |
| 2026 Apr 25 17:58 | 2026 Apr 24 05:44:06 | 73.8824 | 0.00385 | 6.6954 | 13.7228 | 353.1195 | 15.09589 | – |
| 2026 Apr 24 17:59 | 2026 Apr 24 05:44:06 | 73.8824 | 0.00385 | 6.6954 | 13.7228 | 353.1195 | 15.09589 | – |
| 2026 Apr 23 17:57 | 2026 Apr 18 17:41:49 | 73.8800 | 0.00389 | 7.4588 | 26.9572 | 353.1195 | 15.09589 | – |
| 2026 Apr 22 17:57 | 2026 Apr 18 17:41:49 | 73.8800 | 0.00389 | 7.4588 | 26.9572 | 353.1195 | 15.09589 | – |
| 2026 Apr 21 17:57 | 2026 Apr 18 17:41:49 | 73.8800 | 0.00389 | 7.4588 | 26.9572 | 353.1195 | 15.09589 | – |
| 2026 Apr 20 17:57 | 2026 Apr 18 17:41:49 | 73.8800 | 0.00389 | 7.4588 | 26.9572 | 353.1195 | 15.09589 | – |
| 2026 Apr 19 17:58 | 2026 Apr 18 17:41:49 | 73.8800 | 0.00389 | 7.4588 | 26.9572 | 353.1195 | 15.09589 | – |
| 2026 Apr 18 17:56 | 2026 Apr 13 00:52:07 | 73.8810 | 0.00389 | 8.2497 | 40.1587 | 353.1195 | 15.09589 | – |
| 2026 Apr 16 17:57 | 2026 Apr 13 00:52:07 | 73.8810 | 0.00389 | 8.2497 | 40.1587 | 353.1195 | 15.09589 | – |
| 2026 Apr 14 17:57 | 2026 Apr 13 00:52:07 | 73.8810 | 0.00389 | 8.2497 | 40.1587 | 353.1195 | 15.09589 | – |
| 2026 Apr 13 17:57 | 2026 Apr 13 00:52:07 | 73.8810 | 0.00389 | 8.2497 | 40.1587 | 353.1195 | 15.09589 | – |
| 2026 Apr 12 17:57 | 2026 Apr 03 13:18:57 | 73.8843 | 0.00384 | 9.5643 | 62.1570 | 353.1195 | 15.09589 | – |
| 2026 Apr 11 17:57 | 2026 Apr 03 13:18:57 | 73.8843 | 0.00384 | 9.5643 | 62.1570 | 353.1195 | 15.09589 | – |
| 2026 Apr 10 17:58 | 2026 Apr 03 13:18:57 | 73.8843 | 0.00384 | 9.5643 | 62.1570 | 353.1195 | 15.09589 | – |
| 2026 Apr 09 18:01 | 2026 Apr 03 13:18:57 | 73.8843 | 0.00384 | 9.5643 | 62.1570 | 353.1195 | 15.09589 | – |
| 2026 Apr 08 17:57 | 2026 Apr 03 13:18:57 | 73.8843 | 0.00384 | 9.5643 | 62.1570 | 353.1195 | 15.09589 | – |
| 2026 Apr 07 17:57 | 2026 Apr 01 10:23:02 | 73.8830 | 0.00387 | 9.8584 | 67.5605 | 353.1195 | 15.09589 | – |
| 2026 Apr 06 17:57 | 2026 Apr 01 10:23:02 | 73.8830 | 0.00387 | 9.8584 | 67.5605 | 353.1195 | 15.09589 | – |